Airfield :
LOGIN :

Register | Disclaimer

   EN    FR    IT 

 










Legend :    VFR   Marginal VFR   IFR   Intensive IFR   Very Intensive IFR
Visi :
Ceiling :
>= 8 km
>= 3000ft
5 to 8 km
1000 to 3000 ft
1500m to 5 km
500 to 1000 ft
800 to 1500m
200 to 500 ft
< 800m
< 200 ft
Symbols :   Thunderstorms  Fog  Heavy snow  Heavy precipitations  Wind > 20 kt
SIGMETs :     Misc.  Thunderstorms  Icing  Turbulence  Mountain Waves  Volcanic Ashes







- Airport Elevation : 506 ft
- IATA code : GOT


ESGG - Landvetter

CURRENT METAR :
  • 211920Z 26010KT 9999 BKN009 OVC013 15/12 Q1015

EXPIRED METARs :
  • 211850Z 25010KT 9999 BKN008 BKN011 OVC013 15/13 Q1014 REDZ
  • 211820Z 26009KT 9999 -SHRA BKN008 OVC010 16/14 Q1014
  • 211750Z 26007KT 9999 BKN011 OVC014 17/14 Q1014
  • 211720Z 27011KT 9999 BKN011 OVC014 17/14 Q1013
  • 211650Z 26010KT 9999 SCT014 BKN021 OVC029 18/14 Q1013
  • 211620Z 25010KT 9999 SCT017TCU BKN028 18/15 Q1013

TAF AMD TAF ESGG
Valid from the 21 at 18:00 until the 22 at 18:00 UTC


211838Z 2118/2218 26012KT 9999 BKN015
TEMPO 2118/2204 BKN008
BECMG 2216/2218 20008KT 4500 -RA BKN012
No reported NOTAMs for that airfield.



MET'MAP, your aeronautical weather chart ! - Copyright ORBIFLY December 2007 - Disclaimer

ORBIFLY MET'MAP TEAM :

Programming & Development : Alexandra Zaïnal
Concept & Development : Baudouin d'Aumeries
Co-Development & Prog : Marc-Olivier Méhu
Technical & hardware support : Manuel Goepfert

Contact : metmap@orbifly.com




SOURCES & CREDITS :

   NOAA